Time,TemperatureF,DewpointF,PressureIn,WindDirection,WindDirectionDegrees,WindSpeedMPH,WindSpeedGustMPH,Humidity,HourlyPrecipIn,Conditions,Clouds,dailyrainin,SolarRadiationWatts/m^2,SoftwareType,DateUTC
2013-03-30 00:01:00,32.7,-99.9,29.96,NE,45,5.0,7.1,94,0.00,,,0.00,0.986,,2013-03-30 05:01:00,
2013-03-30 00:11:00,32.8,-99.9,29.96,NE,47,3.0,3.8,94,0.00,,,0.00,1.016,,2013-03-30 05:11:00,
2013-03-30 00:21:00,32.8,-99.9,29.96,SE,139,0.0,2.1,94,0.00,,,0.00,1.016,,2013-03-30 05:21:00,
2013-03-30 00:31:00,32.8,-99.9,29.96,WSW,258,0.0,0.0,94,0.00,,,0.00,1.016,,2013-03-30 05:31:00,
2013-03-30 00:41:00,32.7,-99.9,29.95,SSW,200,0.0,0.0,94,0.00,,,0.00,1.016,,2013-03-30 05:41:00,
2013-03-30 00:51:00,32.7,-99.9,29.95,WNW,294,0.0,2.1,94,0.00,,,0.00,1.016,,2013-03-30 05:51:00,
2013-03-30 01:01:00,32.6,-99.9,29.95,ENE,58,0.0,0.0,94,0.00,,,0.00,1.016,,2013-03-30 06:01:00,
2013-03-30 01:11:00,32.5,-99.9,29.94,ENE,71,0.0,0.0,94,0.00,,,0.00,1.016,,2013-03-30 06:11:00,
2013-03-30 01:21:00,32.4,-99.9,29.94,SSW,205,0.0,0.0,95,0.00,,,0.00,1.016,,2013-03-30 06:21:00,
2013-03-30 01:31:00,32.5,-99.9,29.94,West,261,3.0,3.8,95,0.00,,,0.00,1.016,,2013-03-30 06:31:00,
2013-03-30 01:41:00,32.7,-99.9,29.94,NNE,15,1.0,5.4,94,0.00,,,0.00,1.03,,2013-03-30 06:41:00,
2013-03-30 01:51:00,32.4,-99.9,29.94,NNE,19,1.0,2.1,94,0.00,,,0.00,1.02,,2013-03-30 06:51:00,
2013-03-30 02:01:00,32.2,-99.9,29.94,West,266,2.0,3.8,94,0.00,,,0.00,1.016,,2013-03-30 07:01:00,
2013-03-30 02:11:00,32.0,-99.9,29.94,NNE,23,1.0,3.8,94,0.00,,,0.00,1.016,,2013-03-30 07:11:00,
2013-03-30 02:21:00,31.9,-99.9,29.94,WNW,299,1.0,3.8,94,0.00,,,0.00,1.016,,2013-03-30 07:21:00,
2013-03-30 02:31:00,31.4,-99.9,29.93,West,274,1.0,3.8,93,0.00,,,0.00,1.016,,2013-03-30 07:31:00,
2013-03-30 02:41:00,31.4,-99.9,29.93,West,262,1.0,3.8,93,0.00,,,0.00,1.097,,2013-03-30 07:41:00,
2013-03-30 02:51:00,31.3,-99.9,29.94,NNW,333,0.0,3.8,94,0.00,,,0.00,1.067,,2013-03-30 07:51:00,
2013-03-30 03:01:00,31.0,-99.9,29.94,SSE,157,0.0,0.0,94,0.00,,,0.00,1.016,,2013-03-30 08:01:00,
2013-03-30 03:11:00,30.7,-99.9,29.94,ESE,109,2.0,3.8,95,0.00,,,0.00,1.016,,2013-03-30 08:11:00,
2013-03-30 03:21:00,30.4,-99.9,29.94,SE,142,1.0,2.1,95,0.00,,,0.00,1.016,,2013-03-30 08:21:00,
2013-03-30 03:31:00,30.5,-99.9,29.94,SSE,147,1.0,3.8,95,0.00,,,0.00,1.016,,2013-03-30 08:31:00,
2013-03-30 03:41:00,31.1,-99.9,29.94,WNW,286,0.0,2.1,95,0.00,,,0.00,1.02,,2013-03-30 08:41:00,
2013-03-30 03:51:00,30.9,-99.9,29.94,NE,51,2.0,3.8,94,0.00,,,0.00,1.06,,2013-03-30 08:51:00,
2013-03-30 04:01:00,30.9,-99.9,29.94,WSW,248,3.0,5.4,94,0.00,,,0.00,1.033,,2013-03-30 09:01:00,
2013-03-30 04:11:00,30.6,-99.9,29.94,West,271,3.0,3.8,93,0.00,,,0.00,1.016,,2013-03-30 09:11:00,
2013-03-30 04:21:00,30.5,-99.9,29.94,WNW,288,3.0,7.1,93,0.00,,,0.00,1.023,,2013-03-30 09:21:00,
2013-03-30 04:31:00,30.1,-99.9,29.94,NE,34,0.0,0.0,93,0.00,,,0.00,1.02,,2013-03-30 09:31:00,
2013-03-30 04:41:00,29.4,-99.9,29.94,ESE,122,0.0,2.1,94,0.00,,,0.00,1.216,,2013-03-30 09:41:00,
2013-03-30 04:51:00,29.5,-99.9,29.94,NE,37,3.0,5.4,94,0.00,,,0.00,1.192,,2013-03-30 09:51:00,
2013-03-30 05:01:00,29.4,-99.9,29.94,NW,318,1.0,2.1,94,0.00,,,0.00,1.057,,2013-03-30 10:01:00,
2013-03-30 05:11:00,29.5,-99.9,29.94,NNE,22,2.0,5.4,94,0.00,,,0.00,1.057,,2013-03-30 10:11:00,
2013-03-30 05:21:00,29.8,-99.9,29.94,WNW,284,0.0,3.8,94,0.00,,,0.00,0.999,,2013-03-30 10:21:00,
2013-03-30 05:31:00,29.8,-99.9,29.94,North,8,2.0,3.8,93,0.00,,,0.00,0.65,,2013-03-30 10:31:00,
2013-03-30 05:41:00,29.7,-99.9,29.94,WNW,300,1.0,2.1,93,0.00,,,0.00,0.816,,2013-03-30 10:41:00,
2013-03-30 05:51:00,29.2,-99.9,29.94,North,4,0.0,0.0,93,0.00,,,0.00,1.226,,2013-03-30 10:51:00,
2013-03-30 06:01:00,29.0,-99.9,29.94,NW,315,2.0,3.8,93,0.00,,,0.00,1.423,,2013-03-30 11:01:00,
2013-03-30 06:11:00,28.8,-99.9,29.94,West,276,4.0,5.4,93,0.00,,,0.00,1.419,,2013-03-30 11:11:00,
2013-03-30 06:21:00,28.7,-99.9,29.94,West,274,4.0,5.4,93,0.00,,,0.00,1.399,,2013-03-30 11:21:00,
2013-03-30 06:31:00,28.4,-99.9,29.94,WSW,241,2.0,5.4,93,0.00,,,0.00,1.423,,2013-03-30 11:31:00,
2013-03-30 06:41:00,27.8,-99.9,29.95,West,260,3.0,5.4,93,0.00,,,0.00,1.362,,2013-03-30 11:41:00,
2013-03-30 06:51:00,27.7,-99.9,29.95,WNW,293,1.0,3.8,93,0.00,,,0.00,1.423,,2013-03-30 11:51:00,
2013-03-30 07:01:00,27.4,-99.9,29.95,WNW,302,0.0,0.0,93,0.00,,,0.00,1.829,,2013-03-30 12:01:00,
2013-03-30 07:11:00,26.8,-99.9,29.95,NW,318,0.0,2.1,94,0.00,,,0.00,4.048,,2013-03-30 12:11:00,
2013-03-30 07:21:00,26.5,-99.9,29.96,WNW,290,4.0,7.1,93,0.00,,,0.00,6.524,,2013-03-30 12:21:00,
2013-03-30 07:31:00,26.1,-99.9,29.96,SSE,153,0.0,0.0,95,0.00,,,0.00,9.92,,2013-03-30 12:31:00,
2013-03-30 07:41:00,26.0,-99.9,29.96,South,176,2.0,3.8,95,0.00,,,0.00,23.33,,2013-03-30 12:41:00,
2013-03-30 07:51:00,26.2,-99.9,29.96,WSW,243,1.0,2.1,95,0.00,,,0.00,50.65,,2013-03-30 12:51:00,
2013-03-30 08:01:00,26.1,-99.9,29.96,North,5,2.0,5.4,95,0.00,,,0.00,59.52,,2013-03-30 13:01:00,
2013-03-30 08:11:00,25.9,-99.9,29.96,WNW,286,7.0,12.1,95,0.00,,,0.00,49.17,,2013-03-30 13:11:00,
2013-03-30 08:21:00,25.5,-99.9,29.96,WNW,297,5.0,7.1,96,0.00,,,0.00,52.34,,2013-03-30 13:21:00,
2013-03-30 08:31:00,25.7,-99.9,29.97,NW,307,6.0,7.1,96,0.00,,,0.00,77.2,,2013-03-30 13:31:00,
2013-03-30 08:41:00,25.5,-99.9,29.97,North,350,6.0,10.5,96,0.00,,,0.00,67.91,,2013-03-30 13:41:00,
2013-03-30 08:51:00,25.9,-99.9,29.97,WNW,288,6.0,8.8,96,0.00,,,0.00,92,,2013-03-30 13:51:00,
2013-03-30 09:01:00,25.6,-99.9,29.97,WNW,285,10.0,17.2,96,0.00,,,0.00,80.9,,2013-03-30 14:01:00,
2013-03-30 09:11:00,26.0,-99.9,29.97,West,273,5.0,7.1,96,0.00,,,0.00,106.8,,2013-03-30 14:11:00,
2013-03-30 09:21:00,26.3,-99.9,29.97,NW,326,2.0,3.8,96,0.00,,,0.00,156.1,,2013-03-30 14:21:00,
2013-03-30 09:31:00,26.3,-99.9,29.97,WNW,295,4.0,5.4,96,0.00,,,0.00,175.4,,2013-03-30 14:31:00,
2013-03-30 09:41:00,26.6,-99.9,29.97,WNW,291,4.0,7.1,96,0.00,,,0.00,249.1,,2013-03-30 14:41:00,
2013-03-30 09:51:00,27.2,-99.9,29.97,West,278,7.0,10.5,95,0.00,,,0.00,251.6,,2013-03-30 14:51:00,
2013-03-30 10:01:00,27.6,-99.9,29.97,West,267,2.0,5.4,94,0.00,,,0.00,258.5,,2013-03-30 15:01:00,
2013-03-30 10:11:00,28.5,-99.9,29.97,WSW,245,2.0,5.4,94,0.00,,,0.00,288.1,,2013-03-30 15:11:00,
2013-03-30 10:21:00,28.4,-99.9,29.97,NW,321,3.0,5.4,94,0.00,,,0.00,358.7,,2013-03-30 15:21:00,
2013-03-30 10:31:00,28.3,-99.9,29.97,WNW,290,6.0,8.8,92,0.00,,,0.00,354.3,,2013-03-30 15:31:00,
2013-03-30 10:41:00,28.5,-99.9,29.97,West,265,7.0,10.5,93,0.00,,,0.00,340.4,,2013-03-30 15:41:00,
2013-03-30 10:51:00,29.2,-99.9,29.97,NW,313,4.0,7.1,93,0.00,,,0.00,402.4,,2013-03-30 15:51:00,
2013-03-30 11:01:00,29.1,-99.9,29.97,WNW,300,4.0,7.1,92,0.00,,,0.00,368.5,,2013-03-30 16:01:00,
2013-03-30 11:11:00,29.9,-99.9,29.97,WNW,294,7.0,8.8,91,0.00,,,0.00,445.7,,2013-03-30 16:11:00,
2013-03-30 11:21:00,30.8,-99.9,29.97,West,271,4.0,7.1,90,0.00,,,0.00,509.8,,2013-03-30 16:21:00,
2013-03-30 11:31:00,30.8,-99.9,29.98,WNW,296,5.0,7.1,90,0.00,,,0.00,394.3,,2013-03-30 16:31:00,
2013-03-30 11:41:00,30.8,-99.9,29.98,WNW,303,5.0,7.1,91,0.00,,,0.00,509.9,,2013-03-30 16:41:00,
2013-03-30 11:51:00,31.0,-99.9,29.97,NW,314,5.0,8.8,91,0.00,,,0.00,457.2,,2013-03-30 16:51:00,
2013-03-30 12:01:00,31.3,-99.9,29.98,NW,304,5.0,8.8,91,0.00,,,0.00,439.3,,2013-03-30 17:01:00,
2013-03-30 12:11:00,31.4,-99.9,29.98,NW,306,7.0,10.5,91,0.00,,,0.00,594.7,,2013-03-30 17:11:00,
2013-03-30 12:21:00,32.3,-99.9,29.98,West,273,8.0,10.5,90,0.00,,,0.00,424.7,,2013-03-30 17:21:00,
2013-03-30 12:31:00,31.8,-99.9,29.98,WNW,303,9.0,13.8,91,0.00,,,0.00,467.3,,2013-03-30 17:31:00,
2013-03-30 12:41:00,32.5,-99.9,29.98,WNW,294,7.0,12.1,90,0.00,,,0.00,485.8,,2013-03-30 17:41:00,
2013-03-30 12:51:00,32.8,-99.9,29.98,WNW,296,6.0,10.5,90,0.00,,,0.00,375.2,,2013-03-30 17:51:00,
2013-03-30 13:01:00,32.9,-99.9,29.98,West,281,6.0,13.8,90,0.00,,,0.00,432.8,,2013-03-30 18:01:00,
2013-03-30 13:11:00,33.3,-99.9,29.98,West,266,8.0,12.1,89,0.00,,,0.00,436.9,,2013-03-30 18:11:00,
2013-03-30 13:21:00,32.8,-99.9,29.99,West,277,10.0,12.1,91,0.00,,,0.00,376.6,,2013-03-30 18:21:00,
2013-03-30 13:31:00,33.3,-99.9,29.98,NNW,333,7.0,12.1,90,0.00,,,0.00,353.6,,2013-03-30 18:31:00,
2013-03-30 13:41:00,33.2,-99.9,29.99,NW,308,5.0,8.8,91,0.00,,,0.00,330.2,,2013-03-30 18:41:00,
2013-03-30 13:51:00,33.7,-99.9,29.99,West,273,3.0,5.4,91,0.00,,,0.00,332.2,,2013-03-30 18:51:00,
2013-03-30 14:01:00,34.1,-99.9,29.99,NW,316,6.0,8.8,90,0.00,,,0.00,360.5,,2013-03-30 19:01:00,
2013-03-30 14:11:00,34.0,-99.9,29.98,West,280,3.0,5.4,90,0.00,,,0.00,392.5,,2013-03-30 19:11:00,
2013-03-30 14:21:00,34.3,-99.9,29.98,West,269,8.0,15.5,89,0.00,,,0.00,406.1,,2013-03-30 19:21:00,
2013-03-30 14:31:00,34.6,-99.9,29.98,SW,235,4.0,7.1,90,0.00,,,0.00,344.8,,2013-03-30 19:31:00,
2013-03-30 14:41:00,33.9,-99.9,29.98,WNW,285,8.0,12.1,91,0.00,,,0.00,303.1,,2013-03-30 19:41:00,
2013-03-30 14:51:00,33.8,-99.9,29.98,West,278,7.0,10.5,91,0.00,,,0.00,337.1,,2013-03-30 19:51:00,
2013-03-30 15:01:00,34.0,-99.9,29.98,WNW,296,7.0,10.5,90,0.00,,,0.00,333.5,,2013-03-30 20:01:00,
2013-03-30 15:11:00,34.7,-99.9,29.97,West,275,7.0,8.8,88,0.00,,,0.00,492,,2013-03-30 20:11:00,
2013-03-30 15:21:00,34.7,-99.9,29.97,West,276,6.0,8.8,88,0.00,,,0.00,687.9,,2013-03-30 20:21:00,
2013-03-30 15:31:00,34.9,-99.9,29.97,West,273,6.0,8.8,87,0.00,,,0.00,397.4,,2013-03-30 20:31:00,
2013-03-30 15:41:00,35.4,-99.9,29.97,WNW,294,6.0,8.8,85,0.00,,,0.00,376.3,,2013-03-30 20:41:00,
2013-03-30 15:51:00,35.4,-99.9,29.97,WNW,285,6.0,10.5,85,0.00,,,0.00,349.7,,2013-03-30 20:51:00,
2013-03-30 16:01:00,35.7,-99.9,29.97,West,279,6.0,8.8,86,0.00,,,0.00,490.3,,2013-03-30 21:01:00,
2013-03-30 16:11:00,36.0,-99.9,29.97,WSW,250,5.0,8.8,84,0.00,,,0.00,505.8,,2013-03-30 21:11:00,
2013-03-30 16:21:00,35.2,-99.9,29.96,WNW,287,4.0,7.1,86,0.00,,,0.00,376.3,,2013-03-30 21:21:00,
2013-03-30 16:31:00,35.6,-99.9,29.96,NNW,348,4.0,7.1,85,0.00,,,0.00,559.9,,2013-03-30 21:31:00,
2013-03-30 16:41:00,35.5,-99.9,29.96,NW,313,7.0,10.5,85,0.00,,,0.00,501.9,,2013-03-30 21:41:00,
2013-03-30 16:51:00,34.2,-99.9,29.96,West,281,9.0,12.1,86,0.00,,,0.00,382,,2013-03-30 21:51:00,
2013-03-30 17:01:00,35.2,-99.9,29.96,West,281,3.0,5.4,85,0.00,,,0.00,494.1,,2013-03-30 22:01:00,
2013-03-30 17:11:00,34.5,-99.9,29.96,NW,323,3.0,5.4,87,0.00,,,0.00,218.3,,2013-03-30 22:11:00,
2013-03-30 17:21:00,33.3,-99.9,29.95,WNW,291,3.0,5.4,90,0.00,,,0.00,153.6,,2013-03-30 22:21:00,
2013-03-30 17:31:00,32.3,-99.9,29.95,West,275,7.0,8.8,91,0.00,,,0.00,182.4,,2013-03-30 22:31:00,
2013-03-30 17:41:00,32.2,-99.9,29.95,West,265,8.0,12.1,91,0.00,,,0.00,162.8,,2013-03-30 22:41:00,
2013-03-30 17:51:00,32.9,-99.9,29.95,WNW,297,7.0,10.5,91,0.00,,,0.00,209,,2013-03-30 22:51:00,
2013-03-30 18:01:00,33.1,-99.9,29.95,NNW,329,5.0,10.5,90,0.00,,,0.00,242.3,,2013-03-30 23:01:00,
2013-03-30 18:11:00,35.1,-99.9,29.95,NW,314,3.0,7.1,86,0.00,,,0.00,346.4,,2013-03-30 23:11:00,
2013-03-30 18:21:00,34.0,-99.9,29.95,WNW,283,6.0,8.8,87,0.00,,,0.00,205.5,,2013-03-30 23:21:00,
2013-03-30 18:31:00,33.8,-99.9,29.95,WNW,303,6.0,10.5,87,0.00,,,0.00,126.8,,2013-03-30 23:31:00,
2013-03-30 18:41:00,34.5,-99.9,29.95,West,278,7.0,12.1,85,0.00,,,0.00,136.7,,2013-03-30 23:41:00,
2013-03-30 18:51:00,34.1,-99.9,29.94,NW,314,6.0,8.8,86,0.00,,,0.00,102.5,,2013-03-30 23:51:00,
2013-03-30 19:01:00,33.6,-99.9,29.95,West,275,7.0,10.5,87,0.00,,,0.00,72.4,,2013-03-31 00:01:00,
2013-03-30 19:11:00,33.7,-99.9,29.95,WNW,291,6.0,10.5,86,0.00,,,0.00,40.68,,2013-03-31 00:11:00,
2013-03-30 19:21:00,33.5,-99.9,29.95,WNW,298,6.0,8.8,86,0.00,,,0.00,34.82,,2013-03-31 00:21:00,
2013-03-30 19:31:00,33.3,-99.9,29.94,North,0,4.0,7.1,87,0.00,,,0.00,26.39,,2013-03-31 00:31:00,
2013-03-30 19:41:00,33.2,-99.9,29.94,NW,326,4.0,7.1,87,0.00,,,0.00,14.96,,2013-03-31 00:41:00,
2013-03-30 19:51:00,32.9,-99.9,29.94,NE,45,4.0,7.1,87,0.00,,,0.00,9.81,,2013-03-31 00:51:00,
2013-03-30 20:01:00,32.8,-99.9,29.94,NW,324,4.0,7.1,88,0.00,,,0.00,4.565,,2013-03-31 01:01:00,
2013-03-30 20:11:00,33.1,-99.9,29.94,NNW,343,4.0,8.8,87,0.00,,,0.00,1.023,,2013-03-31 01:11:00,
2013-03-30 20:21:00,33.3,-99.9,29.94,NNW,341,5.0,8.8,86,0.00,,,0.00,0.203,,2013-03-31 01:21:00,
2013-03-30 20:31:00,33.5,-99.9,29.94,NW,315,7.0,8.8,86,0.00,,,0.00,0.203,,2013-03-31 01:31:00,
2013-03-30 20:41:00,33.8,-99.9,29.94,NW,323,6.0,8.8,84,0.00,,,0.00,0.125,,2013-03-31 01:41:00,
2013-03-30 20:51:00,34.0,-99.9,29.94,NW,323,6.0,8.8,83,0.00,,,0.00,0.159,,2013-03-31 01:51:00,
2013-03-30 21:01:00,34.0,-99.9,29.93,North,351,5.0,8.8,83,0.00,,,0.00,0.108,,2013-03-31 02:01:00,
2013-03-30 21:11:00,33.7,-99.9,29.93,NNW,341,0.0,2.1,84,0.00,,,0.00,0.203,,2013-03-31 02:11:00,
2013-03-30 21:21:00,33.5,-99.9,29.93,NW,324,2.0,5.4,85,0.00,,,0.00,0.203,,2013-03-31 02:21:00,
2013-03-30 21:31:00,33.2,-99.9,29.93,NW,317,0.0,2.1,85,0.00,,,0.00,0.203,,2013-03-31 02:31:00,
2013-03-30 21:41:00,32.2,-99.9,29.93,WSW,240,2.0,3.8,86,0.00,,,0.00,0.203,,2013-03-31 02:41:00,
2013-03-30 21:51:00,31.3,-99.9,29.93,WNW,282,0.0,2.1,88,0.00,,,0.00,0.22,,2013-03-31 02:51:00,
2013-03-30 22:01:00,31.3,-99.9,29.93,West,272,0.0,2.1,88,0.00,,,0.00,0.376,,2013-03-31 03:01:00,
2013-03-30 22:11:00,30.8,-99.9,29.93,WSW,241,3.0,5.4,89,0.00,,,0.00,0.39,,2013-03-31 03:11:00,
2013-03-30 22:21:00,30.7,-99.9,29.93,West,272,4.0,5.4,90,0.00,,,0.00,0.406,,2013-03-31 03:21:00,
2013-03-30 22:31:00,31.2,-99.9,29.93,West,268,6.0,8.8,90,0.00,,,0.00,0.39,,2013-03-31 03:31:00,
2013-03-30 22:41:00,31.7,-99.9,29.93,West,266,5.0,7.1,90,0.00,,,0.00,0.203,,2013-03-31 03:41:00,
2013-03-30 22:51:00,32.4,-99.9,29.92,West,263,6.0,8.8,89,0.00,,,0.00,0.203,,2013-03-31 03:51:00,
2013-03-30 23:01:00,32.8,-99.9,29.92,West,260,6.0,7.1,89,0.00,,,0.00,0.203,,2013-03-31 04:01:00,
2013-03-30 23:11:00,32.2,-99.9,29.91,WSW,254,4.0,5.4,89,0.00,,,0.00,0.203,,2013-03-31 04:11:00,
2013-03-30 23:21:00,32.0,-99.9,29.91,SW,235,6.0,7.1,90,0.00,,,0.00,0.203,,2013-03-31 04:21:00,
2013-03-30 23:31:00,32.2,-99.9,29.91,WSW,253,5.0,8.8,90,0.00,,,0.00,0.203,,2013-03-31 04:31:00,
2013-03-30 23:41:00,32.7,-99.9,29.91,WSW,244,5.0,7.1,90,0.00,,,0.00,0.203,,2013-03-31 04:41:00,
2013-03-30 23:51:00,32.2,-99.9,29.91,WSW,255,5.0,8.8,90,0.00,,,0.00,0.22,,2013-03-31 04:51:00,